New Richmond, Wisconsin
Current Conditions -  °F | °C
As of 2:35 AM on Saturday 25 Oct 2014 (Local Time) from KRNH Reporting Station
Clear Clear  
Wind Chill: 52°   Ceiling: Unl
Heat Index: 52°   Visibility: 10mi
Dew Point: 41°   Wind: 9mph
Humidity: 67%   Direction: 290°WNW
Pressure: 29.92"   Gusts: NA
Location:  45.12°N, 92.54°W
Report Text: KRNH 250735Z AUTO 29008KT 10SM CLR 11/05 A2992 RMK AO2 T01100051
Loading
Personal Weather Stations






























Interactive Weather Map
Tropical Storm Tracking
New forecast layout! Learn more

10-Day Weather Forecast

Advertisements
Track Severe Weather on mobile